sensor_id;sensor_type;location;lat;lon;timestamp;pressure;altitude;pressure_sealevel;temperature;humidity
21300;BME280;10809;49.476;11.016;2022-08-11T00:00:42;98802.75;;;22.24;32.95
21300;BME280;10809;49.476;11.016;2022-08-11T00:03:14;98804.03;;;22.20;33.18
21300;BME280;10809;49.476;11.016;2022-08-11T00:05:55;98801.75;;;22.16;33.20
21300;BME280;10809;49.476;11.016;2022-08-11T00:08:30;98809.31;;;22.12;33.29
21300;BME280;10809;49.476;11.016;2022-08-11T00:11:05;98806.19;;;22.07;33.22
21300;BME280;10809;49.476;11.016;2022-08-11T00:13:39;98811.00;;;22.04;33.21
21300;BME280;10809;49.476;11.016;2022-08-11T00:16:14;98813.16;;;22.00;33.15
21300;BME280;10809;49.476;11.016;2022-08-11T00:18:50;98813.59;;;21.96;33.39
21300;BME280;10809;49.476;11.016;2022-08-11T00:21:24;98806.75;;;21.92;33.47
21300;BME280;10809;49.476;11.016;2022-08-11T00:23:59;98805.38;;;21.88;33.52
21300;BME280;10809;49.476;11.016;2022-08-11T00:26:30;98803.97;;;21.84;33.91
21300;BME280;10809;49.476;11.016;2022-08-11T00:29:10;98807.91;;;21.80;33.62
21300;BME280;10809;49.476;11.016;2022-08-11T00:32:12;98805.66;;;21.75;33.60
21300;BME280;10809;49.476;11.016;2022-08-11T00:34:45;98807.66;;;21.73;33.58
21300;BME280;10809;49.476;11.016;2022-08-11T00:37:21;98799.00;;;21.70;33.52
21300;BME280;10809;49.476;11.016;2022-08-11T00:39:53;98812.63;;;21.68;33.90
21300;BME280;10809;49.476;11.016;2022-08-11T00:45:39;98809.88;;;21.59;33.69
21300;BME280;10809;49.476;11.016;2022-08-11T00:48:33;98808.63;;;21.53;33.75
21300;BME280;10809;49.476;11.016;2022-08-11T00:51:14;98805.34;;;21.49;34.13
21300;BME280;10809;49.476;11.016;2022-08-11T00:54:26;98806.63;;;21.45;33.79
21300;BME280;10809;49.476;11.016;2022-08-11T01:00:13;98798.66;;;21.34;33.73
21300;BME280;10809;49.476;11.016;2022-08-11T01:05:44;98794.13;;;21.25;33.78
21300;BME280;10809;49.476;11.016;2022-08-11T01:11:40;98792.13;;;21.18;33.90
21300;BME280;10809;49.476;11.016;2022-08-11T01:14:39;98794.25;;;21.14;33.80
21300;BME280;10809;49.476;11.016;2022-08-11T01:27:23;98800.03;;;21.00;34.36
21300;BME280;10809;49.476;11.016;2022-08-11T01:36:05;98799.00;;;20.92;34.43
21300;BME280;10809;49.476;11.016;2022-08-11T01:47:42;98798.25;;;20.80;35.09
21300;BME280;10809;49.476;11.016;2022-08-11T01:50:27;98804.06;;;20.76;34.81
21300;BME280;10809;49.476;11.016;2022-08-11T01:56:28;98800.06;;;20.70;34.84
21300;BME280;10809;49.476;11.016;2022-08-11T02:04:38;98804.28;;;20.63;35.25
21300;BME280;10809;49.476;11.016;2022-08-11T02:07:22;98804.56;;;20.60;35.27
21300;BME280;10809;49.476;11.016;2022-08-11T02:13:14;98807.66;;;20.56;35.28
21300;BME280;10809;49.476;11.016;2022-08-11T02:15:49;98803.38;;;20.53;35.57
21300;BME280;10809;49.476;11.016;2022-08-11T02:18:36;98808.19;;;20.50;35.39
21300;BME280;10809;49.476;11.016;2022-08-11T02:21:37;98798.66;;;20.46;35.39
21300;BME280;10809;49.476;11.016;2022-08-11T02:24:34;98804.19;;;20.44;35.68
21300;BME280;10809;49.476;11.016;2022-08-11T02:27:23;98799.06;;;20.41;35.48
21300;BME280;10809;49.476;11.016;2022-08-11T02:30:07;98796.53;;;20.40;35.64
21300;BME280;10809;49.476;11.016;2022-08-11T02:33:28;98789.59;;;20.37;35.71
21300;BME280;10809;49.476;11.016;2022-08-11T02:36:00;98786.16;;;20.35;36.04
21300;BME280;10809;49.476;11.016;2022-08-11T02:38:46;98788.16;;;20.33;35.89
21300;BME280;10809;49.476;11.016;2022-08-11T02:45:05;98787.69;;;20.28;35.72
21300;BME280;10809;49.476;11.016;2022-08-11T02:53:50;98791.88;;;20.21;36.29
21300;BME280;10809;49.476;11.016;2022-08-11T02:59:46;98799.50;;;20.16;36.19
21300;BME280;10809;49.476;11.016;2022-08-11T03:05:06;98801.72;;;20.11;36.70
21300;BME280;10809;49.476;11.016;2022-08-11T03:08:06;98799.31;;;20.08;36.18
21300;BME280;10809;49.476;11.016;2022-08-11T03:13:51;98794.31;;;20.04;36.51
21300;BME280;10809;49.476;11.016;2022-08-11T03:16:59;98791.91;;;20.01;36.72
21300;BME280;10809;49.476;11.016;2022-08-11T03:25:48;98799.88;;;19.91;36.86
21300;BME280;10809;49.476;11.016;2022-08-11T03:28:28;98801.88;;;19.89;37.29
21300;BME280;10809;49.476;11.016;2022-08-11T03:33:48;98799.84;;;19.82;37.45
21300;BME280;10809;49.476;11.016;2022-08-11T03:42:34;98797.69;;;19.75;37.74
21300;BME280;10809;49.476;11.016;2022-08-11T03:45:25;98804.16;;;19.73;37.59
21300;BME280;10809;49.476;11.016;2022-08-11T03:51:21;98800.16;;;19.67;37.48
21300;BME280;10809;49.476;11.016;2022-08-11T03:54:03;98798.59;;;19.65;37.72
21300;BME280;10809;49.476;11.016;2022-08-11T04:30:11;98800.03;;;19.37;38.49
21300;BME280;10809;49.476;11.016;2022-08-11T04:49:18;98809.56;;;19.30;38.50
21300;BME280;10809;49.476;11.016;2022-08-11T04:56:07;98817.47;;;19.32;38.50
21300;BME280;10809;49.476;11.016;2022-08-11T04:59:39;98823.72;;;19.32;38.80
21300;BME280;10809;49.476;11.016;2022-08-11T05:06:09;98824.59;;;19.33;39.01
21300;BME280;10809;49.476;11.016;2022-08-11T05:09:03;98829.81;;;19.34;39.29
21300;BME280;10809;49.476;11.016;2022-08-11T05:12:01;98828.97;;;19.34;39.27
21300;BME280;10809;49.476;11.016;2022-08-11T05:14:43;98836.91;;;19.35;39.63
21300;BME280;10809;49.476;11.016;2022-08-11T05:17:43;98840.44;;;19.36;39.45
21300;BME280;10809;49.476;11.016;2022-08-11T05:20:44;98829.56;;;19.37;39.40
21300;BME280;10809;49.476;11.016;2022-08-11T05:23:56;98837.38;;;19.40;39.51
21300;BME280;10809;49.476;11.016;2022-08-11T05:26:49;98835.25;;;19.44;39.39
21300;BME280;10809;49.476;11.016;2022-08-11T05:29:42;98832.44;;;19.45;39.64
21300;BME280;10809;49.476;11.016;2022-08-11T05:32:35;98830.50;;;19.47;39.60
21300;BME280;10809;49.476;11.016;2022-08-11T05:35:42;98831.13;;;19.51;39.75
21300;BME280;10809;49.476;11.016;2022-08-11T05:38:23;98829.03;;;19.54;39.67
21300;BME280;10809;49.476;11.016;2022-08-11T05:41:18;98836.81;;;19.57;39.46
21300;BME280;10809;49.476;11.016;2022-08-11T05:44:09;98840.13;;;19.61;39.76
21300;BME280;10809;49.476;11.016;2022-08-11T05:46:59;98844.41;;;19.63;39.46
21300;BME280;10809;49.476;11.016;2022-08-11T05:49:50;98845.97;;;19.66;39.73
21300;BME280;10809;49.476;11.016;2022-08-11T05:52:44;98850.09;;;19.70;39.74
21300;BME280;10809;49.476;11.016;2022-08-11T05:55:40;98847.88;;;19.75;39.67
21300;BME280;10809;49.476;11.016;2022-08-11T05:58:34;98851.19;;;19.78;39.76
21300;BME280;10809;49.476;11.016;2022-08-11T06:01:09;98839.31;;;19.81;39.58
21300;BME280;10809;49.476;11.016;2022-08-11T06:03:43;98848.78;;;19.85;40.01
21300;BME280;10809;49.476;11.016;2022-08-11T06:06:35;98846.84;;;19.87;39.77
21300;BME280;10809;49.476;11.016;2022-08-11T06:09:06;98842.06;;;19.91;39.89
21300;BME280;10809;49.476;11.016;2022-08-11T06:11:38;98846.31;;;19.93;39.67
21300;BME280;10809;49.476;11.016;2022-08-11T06:14:16;98841.53;;;19.97;39.29
21300;BME280;10809;49.476;11.016;2022-08-11T06:16:48;98839.44;;;20.00;39.73
21300;BME280;10809;49.476;11.016;2022-08-11T06:19:21;98842.59;;;20.05;39.57
21300;BME280;10809;49.476;11.016;2022-08-11T06:21:55;98836.81;;;20.10;39.68
21300;BME280;10809;49.476;11.016;2022-08-11T06:24:26;98833.72;;;20.14;39.47
21300;BME280;10809;49.476;11.016;2022-08-11T06:27:05;98840.31;;;20.21;39.45
21300;BME280;10809;49.476;11.016;2022-08-11T06:29:48;98837.94;;;20.28;39.22
21300;BME280;10809;49.476;11.016;2022-08-11T06:32:28;98837.28;;;20.35;39.34
21300;BME280;10809;49.476;11.016;2022-08-11T06:44:08;98826.41;;;20.97;39.13
21300;BME280;10809;49.476;11.016;2022-08-11T06:46:48;98828.44;;;21.14;39.30
21300;BME280;10809;49.476;11.016;2022-08-11T06:49:21;98835.53;;;21.34;39.39
21300;BME280;10809;49.476;11.016;2022-08-11T06:52:13;98829.63;;;21.59;39.28
21300;BME280;10809;49.476;11.016;2022-08-11T06:54:52;98826.34;;;21.84;38.75
21300;BME280;10809;49.476;11.016;2022-08-11T06:57:36;98825.34;;;22.14;39.01
21300;BME280;10809;49.476;11.016;2022-08-11T07:00:29;98822.56;;;22.52;38.99
21300;BME280;10809;49.476;11.016;2022-08-11T07:03:07;98826.94;;;22.89;38.59
21300;BME280;10809;49.476;11.016;2022-08-11T07:05:44;98824.63;;;23.31;38.40
21300;BME280;10809;49.476;11.016;2022-08-11T07:08:35;98826.75;;;23.72;38.00
21300;BME280;10809;49.476;11.016;2022-08-11T07:11:59;98824.44;;;24.20;37.20
21300;BME280;10809;49.476;11.016;2022-08-11T07:14:52;98816.25;;;24.55;36.67
21300;BME280;10809;49.476;11.016;2022-08-11T07:17:52;98809.44;;;24.85;36.35
21300;BME280;10809;49.476;11.016;2022-08-11T07:20:48;98811.78;;;25.06;35.92
21300;BME280;10809;49.476;11.016;2022-08-11T07:23:37;98808.25;;;25.21;35.29
21300;BME280;10809;49.476;11.016;2022-08-11T07:26:26;98806.94;;;25.33;34.97
21300;BME280;10809;49.476;11.016;2022-08-11T07:29:19;98801.34;;;25.43;34.80
21300;BME280;10809;49.476;11.016;2022-08-11T07:31:51;98800.06;;;25.47;34.52
21300;BME280;10809;49.476;11.016;2022-08-11T07:34:35;98804.81;;;25.53;35.17
21300;BME280;10809;49.476;11.016;2022-08-11T07:37:14;98797.00;;;25.58;34.63
21300;BME280;10809;49.476;11.016;2022-08-11T07:39:47;98803.47;;;25.65;34.52
21300;BME280;10809;49.476;11.016;2022-08-11T07:42:21;98805.34;;;25.72;34.43
21300;BME280;10809;49.476;11.016;2022-08-11T07:44:54;98799.94;;;25.80;33.92
21300;BME280;10809;49.476;11.016;2022-08-11T07:47:44;98802.44;;;25.90;33.77
21300;BME280;10809;49.476;11.016;2022-08-11T07:50:34;98797.72;;;26.00;33.99
21300;BME280;10809;49.476;11.016;2022-08-11T07:53:23;98802.81;;;26.11;33.16
21300;BME280;10809;49.476;11.016;2022-08-11T07:55:59;98792.81;;;26.19;33.61
21300;BME280;10809;49.476;11.016;2022-08-11T07:58:33;98803.31;;;26.30;33.30
21300;BME280;10809;49.476;11.016;2022-08-11T08:01:24;98799.03;;;26.44;32.93
21300;BME280;10809;49.476;11.016;2022-08-11T08:04:16;98800.03;;;26.59;32.98
21300;BME280;10809;49.476;11.016;2022-08-11T08:07:05;98787.59;;;26.73;32.81
21300;BME280;10809;49.476;11.016;2022-08-11T08:09:57;98794.84;;;26.88;32.38
21300;BME280;10809;49.476;11.016;2022-08-11T08:12:46;98788.66;;;27.02;32.06
21300;BME280;10809;49.476;11.016;2022-08-11T08:15:35;98796.44;;;27.13;32.25
21300;BME280;10809;49.476;11.016;2022-08-11T08:18:25;98783.78;;;27.28;31.51
21300;BME280;10809;49.476;11.016;2022-08-11T08:20:56;98788.47;;;27.42;31.30
21300;BME280;10809;49.476;11.016;2022-08-11T08:23:44;98783.09;;;27.57;31.13
21300;BME280;10809;49.476;11.016;2022-08-11T08:26:16;98773.84;;;27.66;30.71
21300;BME280;10809;49.476;11.016;2022-08-11T08:29:06;98777.72;;;27.71;30.35
21300;BME280;10809;49.476;11.016;2022-08-11T08:31:55;98780.13;;;27.74;30.97
21300;BME280;10809;49.476;11.016;2022-08-11T08:34:26;98783.13;;;27.79;30.29
21300;BME280;10809;49.476;11.016;2022-08-11T08:36:57;98772.72;;;27.83;30.06
21300;BME280;10809;49.476;11.016;2022-08-11T08:39:29;98780.34;;;27.87;29.79
21300;BME280;10809;49.476;11.016;2022-08-11T08:42:09;98771.97;;;27.89;30.00
21300;BME280;10809;49.476;11.016;2022-08-11T08:44:48;98778.47;;;27.88;29.56
21300;BME280;10809;49.476;11.016;2022-08-11T08:47:22;98775.94;;;27.86;29.23
21300;BME280;10809;49.476;11.016;2022-08-11T08:49:59;98776.78;;;27.87;29.75
21300;BME280;10809;49.476;11.016;2022-08-11T08:52:36;98775.75;;;27.88;29.48
21300;BME280;10809;49.476;11.016;2022-08-11T08:55:16;98773.69;;;27.90;29.32
21300;BME280;10809;49.476;11.016;2022-08-11T08:57:48;98774.16;;;27.93;29.10
21300;BME280;10809;49.476;11.016;2022-08-11T09:00:19;98765.63;;;27.96;28.64
21300;BME280;10809;49.476;11.016;2022-08-11T09:02:51;98777.84;;;28.00;28.76
21300;BME280;10809;49.476;11.016;2022-08-11T09:05:21;98765.75;;;28.03;28.54
21300;BME280;10809;49.476;11.016;2022-08-11T09:07:55;98763.50;;;28.07;28.94
21300;BME280;10809;49.476;11.016;2022-08-11T09:10:28;98763.13;;;28.10;28.58
21300;BME280;10809;49.476;11.016;2022-08-11T09:13:02;98768.03;;;28.14;28.89
21300;BME280;10809;49.476;11.016;2022-08-11T09:15:34;98767.09;;;28.22;28.42
21300;BME280;10809;49.476;11.016;2022-08-11T09:18:06;98770.94;;;28.27;28.33
21300;BME280;10809;49.476;11.016;2022-08-11T09:20:38;98767.03;;;28.30;28.05
21300;BME280;10809;49.476;11.016;2022-08-11T09:23:09;98768.75;;;28.31;27.53
21300;BME280;10809;49.476;11.016;2022-08-11T09:25:59;98758.84;;;28.30;27.88
21300;BME280;10809;49.476;11.016;2022-08-11T09:28:49;98757.50;;;28.26;27.45
21300;BME280;10809;49.476;11.016;2022-08-11T09:31:20;98767.28;;;28.20;27.68
21300;BME280;10809;49.476;11.016;2022-08-11T09:33:53;98763.59;;;28.13;27.49
21300;BME280;10809;49.476;11.016;2022-08-11T09:36:24;98762.81;;;28.04;27.31
21300;BME280;10809;49.476;11.016;2022-08-11T09:39:14;98772.97;;;27.96;27.16
21300;BME280;10809;49.476;11.016;2022-08-11T09:42:07;98764.00;;;27.87;27.80
21300;BME280;10809;49.476;11.016;2022-08-11T09:44:38;98754.69;;;27.82;27.78
21300;BME280;10809;49.476;11.016;2022-08-11T09:47:27;98761.34;;;27.79;27.35
21300;BME280;10809;49.476;11.016;2022-08-11T09:49:59;98752.53;;;27.77;27.65
21300;BME280;10809;49.476;11.016;2022-08-11T09:52:35;98748.09;;;27.76;27.78
21300;BME280;10809;49.476;11.016;2022-08-11T09:55:07;98733.13;;;27.72;27.35
21300;BME280;10809;49.476;11.016;2022-08-11T09:57:46;98746.94;;;27.71;27.40
21300;BME280;10809;49.476;11.016;2022-08-11T10:00:36;98737.91;;;27.70;27.53
21300;BME280;10809;49.476;11.016;2022-08-11T10:03:19;98737.91;;;27.70;27.58
21300;BME280;10809;49.476;11.016;2022-08-11T10:05:54;98733.13;;;27.72;27.68
21300;BME280;10809;49.476;11.016;2022-08-11T10:08:50;98738.25;;;27.75;27.35
21300;BME280;10809;49.476;11.016;2022-08-11T10:11:23;98735.34;;;27.77;26.95
21300;BME280;10809;49.476;11.016;2022-08-11T10:13:54;98730.75;;;27.77;27.29
21300;BME280;10809;49.476;11.016;2022-08-11T10:16:44;98735.16;;;27.78;27.08
21300;BME280;10809;49.476;11.016;2022-08-11T10:19:15;98712.53;;;27.78;27.06
21300;BME280;10809;49.476;11.016;2022-08-11T10:21:53;98723.22;;;27.79;27.31
21300;BME280;10809;49.476;11.016;2022-08-11T10:24:43;98728.34;;;27.82;26.95
21300;BME280;10809;49.476;11.016;2022-08-11T10:27:34;98726.75;;;27.88;26.32
21300;BME280;10809;49.476;11.016;2022-08-11T10:30:05;98729.09;;;27.91;26.64
21300;BME280;10809;49.476;11.016;2022-08-11T10:32:56;98725.81;;;27.95;26.33
21300;BME280;10809;49.476;11.016;2022-08-11T10:35:47;98714.38;;;28.00;26.09
21300;BME280;10809;49.476;11.016;2022-08-11T10:38:17;98716.53;;;28.04;26.42
21300;BME280;10809;49.476;11.016;2022-08-11T10:40:48;98718.69;;;28.09;26.54
21300;BME280;10809;49.476;11.016;2022-08-11T10:43:39;98707.91;;;28.16;26.55
21300;BME280;10809;49.476;11.016;2022-08-11T10:46:11;98709.88;;;28.22;26.25
21300;BME280;10809;49.476;11.016;2022-08-11T10:49:01;98707.09;;;28.30;26.49
21300;BME280;10809;49.476;11.016;2022-08-11T10:51:32;98702.59;;;28.37;26.45
21300;BME280;10809;49.476;11.016;2022-08-11T10:54:24;98689.91;;;28.44;26.12
21300;BME280;10809;49.476;11.016;2022-08-11T10:57:14;98680.97;;;28.50;25.71
21300;BME280;10809;49.476;11.016;2022-08-11T11:00:11;98687.56;;;28.55;26.28
21300;BME280;10809;49.476;11.016;2022-08-11T11:02:54;98680.88;;;28.58;25.97
21300;BME280;10809;49.476;11.016;2022-08-11T11:05:28;98677.75;;;28.61;25.79
21300;BME280;10809;49.476;11.016;2022-08-11T11:08:10;98682.84;;;28.64;26.05
21300;BME280;10809;49.476;11.016;2022-08-11T11:11:02;98675.94;;;28.68;25.27
21300;BME280;10809;49.476;11.016;2022-08-11T11:13:35;98679.34;;;28.70;25.81
21300;BME280;10809;49.476;11.016;2022-08-11T11:16:29;98670.78;;;28.73;25.51
21300;BME280;10809;49.476;11.016;2022-08-11T11:19:21;98670.41;;;28.76;25.34
21300;BME280;10809;49.476;11.016;2022-08-11T11:21:53;98668.97;;;28.80;24.65
21300;BME280;10809;49.476;11.016;2022-08-11T11:27:42;98669.56;;;28.90;25.40
21300;BME280;10809;49.476;11.016;2022-08-11T11:30:17;98656.19;;;28.95;25.31
21300;BME280;10809;49.476;11.016;2022-08-11T11:33:10;98655.22;;;29.02;25.33
21300;BME280;10809;49.476;11.016;2022-08-11T11:38:20;98657.03;;;29.16;24.22
21300;BME280;10809;49.476;11.016;2022-08-11T11:40:51;98650.59;;;29.24;24.19
21300;BME280;10809;49.476;11.016;2022-08-11T11:43:42;98646.06;;;29.31;24.22
21300;BME280;10809;49.476;11.016;2022-08-11T11:46:15;98639.00;;;29.36;24.18
21300;BME280;10809;49.476;11.016;2022-08-11T11:48:46;98644.53;;;29.43;23.90
21300;BME280;10809;49.476;11.016;2022-08-11T11:51:17;98648.56;;;29.47;23.56
21300;BME280;10809;49.476;11.016;2022-08-11T11:53:49;98644.22;;;29.52;23.98
21300;BME280;10809;49.476;11.016;2022-08-11T11:56:21;98643.81;;;29.55;24.18
21300;BME280;10809;49.476;11.016;2022-08-11T11:58:56;98640.50;;;29.60;24.04
21300;BME280;10809;49.476;11.016;2022-08-11T12:01:56;98630.84;;;29.64;24.02
21300;BME280;10809;49.476;11.016;2022-08-11T12:04:27;98633.19;;;29.67;23.06
21300;BME280;10809;49.476;11.016;2022-08-11T12:06:57;98636.56;;;29.69;22.80
21300;BME280;10809;49.476;11.016;2022-08-11T12:09:48;98626.69;;;29.68;22.72
21300;BME280;10809;49.476;11.016;2022-08-11T12:12:19;98630.47;;;29.67;22.84
21300;BME280;10809;49.476;11.016;2022-08-11T12:15:09;98621.59;;;29.65;23.43
21300;BME280;10809;49.476;11.016;2022-08-11T12:17:39;98622.47;;;29.65;23.02
21300;BME280;10809;49.476;11.016;2022-08-11T12:20:10;98615.13;;;29.66;22.79
21300;BME280;10809;49.476;11.016;2022-08-11T12:22:44;98627.72;;;29.67;22.68
21300;BME280;10809;49.476;11.016;2022-08-11T12:25:34;98619.13;;;29.70;22.37
21300;BME280;10809;49.476;11.016;2022-08-11T12:28:24;98608.03;;;29.72;22.67
21300;BME280;10809;49.476;11.016;2022-08-11T12:30:55;98610.34;;;29.75;22.80
21300;BME280;10809;49.476;11.016;2022-08-11T12:33:26;98605.34;;;29.78;22.70
21300;BME280;10809;49.476;11.016;2022-08-11T12:35:58;98597.38;;;29.83;22.17
21300;BME280;10809;49.476;11.016;2022-08-11T12:38:30;98604.19;;;29.87;22.38
21300;BME280;10809;49.476;11.016;2022-08-11T12:41:02;98594.53;;;29.91;22.11
21300;BME280;10809;49.476;11.016;2022-08-11T12:43:51;98597.50;;;29.96;22.27
21300;BME280;10809;49.476;11.016;2022-08-11T12:46:42;98594.16;;;30.01;22.34
21300;BME280;10809;49.476;11.016;2022-08-11T12:49:17;98562.47;;;30.06;22.03
21300;BME280;10809;49.476;11.016;2022-08-11T12:52:08;98577.41;;;30.10;22.56
21300;BME280;10809;49.476;11.016;2022-08-11T12:57:32;98567.81;;;30.21;22.57
21300;BME280;10809;49.476;11.016;2022-08-11T13:00:25;98573.28;;;30.27;22.43
21300;BME280;10809;49.476;11.016;2022-08-11T13:03:19;98567.84;;;30.34;22.34
21300;BME280;10809;49.476;11.016;2022-08-11T13:06:09;98568.78;;;30.41;21.73
21300;BME280;10809;49.476;11.016;2022-08-11T13:08:41;98561.63;;;30.46;21.89
21300;BME280;10809;49.476;11.016;2022-08-11T13:11:14;98555.34;;;30.52;21.45
21300;BME280;10809;49.476;11.016;2022-08-11T13:14:04;98552.84;;;30.57;21.66
21300;BME280;10809;49.476;11.016;2022-08-11T13:16:36;98548.41;;;30.63;21.59
21300;BME280;10809;49.476;11.016;2022-08-11T13:19:30;98547.81;;;30.67;21.39
21300;BME280;10809;49.476;11.016;2022-08-11T13:22:04;98549.91;;;30.72;21.53
21300;BME280;10809;49.476;11.016;2022-08-11T13:24:36;98538.56;;;30.75;21.35
21300;BME280;10809;49.476;11.016;2022-08-11T13:27:08;98545.28;;;30.79;20.91
21300;BME280;10809;49.476;11.016;2022-08-11T13:29:41;98546.59;;;30.83;20.56
21300;BME280;10809;49.476;11.016;2022-08-11T13:32:16;98542.56;;;30.85;20.52
21300;BME280;10809;49.476;11.016;2022-08-11T13:34:49;98539.47;;;30.88;20.66
21300;BME280;10809;49.476;11.016;2022-08-11T13:37:20;98538.22;;;30.91;20.83
21300;BME280;10809;49.476;11.016;2022-08-11T13:39:51;98539.47;;;30.95;20.66
21300;BME280;10809;49.476;11.016;2022-08-11T13:42:22;98534.44;;;30.98;20.95
21300;BME280;10809;49.476;11.016;2022-08-11T13:44:52;98526.41;;;31.03;20.85
21300;BME280;10809;49.476;11.016;2022-08-11T13:47:28;98525.59;;;31.09;20.60
21300;BME280;10809;49.476;11.016;2022-08-11T13:50:06;98514.22;;;31.12;20.68
21300;BME280;10809;49.476;11.016;2022-08-11T13:52:37;98525.59;;;31.16;20.38
21300;BME280;10809;49.476;11.016;2022-08-11T13:55:12;98528.13;;;31.17;20.42
21300;BME280;10809;49.476;11.016;2022-08-11T13:57:55;98522.63;;;31.17;20.34
21300;BME280;10809;49.476;11.016;2022-08-11T14:00:27;98528.13;;;31.17;19.96
21300;BME280;10809;49.476;11.016;2022-08-11T14:03:00;98514.84;;;31.14;19.96
21300;BME280;10809;49.476;11.016;2022-08-11T14:05:37;98518.00;;;31.11;20.21
21300;BME280;10809;49.476;11.016;2022-08-11T14:08:15;98508.94;;;31.11;19.96
21300;BME280;10809;49.476;11.016;2022-08-11T14:10:48;98502.66;;;31.10;19.70
21300;BME280;10809;49.476;11.016;2022-08-11T14:13:40;98515.28;;;31.11;20.07
21300;BME280;10809;49.476;11.016;2022-08-11T14:16:16;98505.19;;;31.12;19.74
21300;BME280;10809;49.476;11.016;2022-08-11T14:18:51;98505.78;;;31.14;20.20
21300;BME280;10809;49.476;11.016;2022-08-11T14:21:23;98500.97;;;31.16;19.72
21300;BME280;10809;49.476;11.016;2022-08-11T14:24:15;98500.31;;;31.20;19.69
21300;BME280;10809;49.476;11.016;2022-08-11T14:26:48;98496.94;;;31.25;20.07
21300;BME280;10809;49.476;11.016;2022-08-11T14:29:22;98486.44;;;31.28;19.93
21300;BME280;10809;49.476;11.016;2022-08-11T14:31:56;98486.63;;;31.33;19.63
21300;BME280;10809;49.476;11.016;2022-08-11T14:34:28;98497.81;;;31.39;19.64
21300;BME280;10809;49.476;11.016;2022-08-11T14:37:07;98491.47;;;31.45;19.92
21300;BME280;10809;49.476;11.016;2022-08-11T14:39:43;98492.75;;;31.49;19.68
21300;BME280;10809;49.476;11.016;2022-08-11T14:42:16;98477.56;;;31.53;19.56
21300;BME280;10809;49.476;11.016;2022-08-11T14:48:58;98477.97;;;31.63;19.09
21300;BME280;10809;49.476;11.016;2022-08-11T14:51:29;98472.47;;;31.63;19.38
21300;BME280;10809;49.476;11.016;2022-08-11T14:54:00;98475.84;;;31.65;19.47
21300;BME280;10809;49.476;11.016;2022-08-11T14:56:49;98469.31;;;31.66;19.23
21300;BME280;10809;49.476;11.016;2022-08-11T14:59:21;98475.44;;;31.68;19.51
21300;BME280;10809;49.476;11.016;2022-08-11T15:01:55;98461.28;;;31.71;19.22
21300;BME280;10809;49.476;11.016;2022-08-11T15:04:49;98463.59;;;31.74;19.63
21300;BME280;10809;49.476;11.016;2022-08-11T15:07:20;98467.81;;;31.76;19.03
21300;BME280;10809;49.476;11.016;2022-08-11T15:10:04;98466.75;;;31.77;19.26
21300;BME280;10809;49.476;11.016;2022-08-11T15:12:38;98466.56;;;31.79;19.37
21300;BME280;10809;49.476;11.016;2022-08-11T15:15:11;98460.00;;;31.80;19.31
21300;BME280;10809;49.476;11.016;2022-08-11T15:18:04;98465.47;;;31.80;19.39
21300;BME280;10809;49.476;11.016;2022-08-11T15:20:41;98456.41;;;31.79;19.10
21300;BME280;10809;49.476;11.016;2022-08-11T15:23:31;98466.56;;;31.79;19.24
21300;BME280;10809;49.476;11.016;2022-08-11T15:26:36;98452.44;;;31.75;19.59
21300;BME280;10809;49.476;11.016;2022-08-11T15:29:46;98453.72;;;31.73;19.09
21300;BME280;10809;49.476;11.016;2022-08-11T15:32:37;98446.16;;;31.68;18.97
21300;BME280;10809;49.476;11.016;2022-08-11T15:35:31;98439.19;;;31.66;19.07
21300;BME280;10809;49.476;11.016;2022-08-11T15:38:22;98445.94;;;31.63;19.11
21300;BME280;10809;49.476;11.016;2022-08-11T15:40:54;98444.28;;;31.62;18.90
21300;BME280;10809;49.476;11.016;2022-08-11T15:43:48;98443.84;;;31.59;19.07
21300;BME280;10809;49.476;11.016;2022-08-11T15:46:50;98437.13;;;31.55;19.36
21300;BME280;10809;49.476;11.016;2022-08-11T15:49:28;98440.09;;;31.53;19.08
21300;BME280;10809;49.476;11.016;2022-08-11T15:52:06;98432.53;;;31.49;19.11
21300;BME280;10809;49.476;11.016;2022-08-11T15:54:40;98445.56;;;31.47;19.14
21300;BME280;10809;49.476;11.016;2022-08-11T15:57:14;98432.53;;;31.42;19.23
21300;BME280;10809;49.476;11.016;2022-08-11T16:00:05;98430.22;;;31.39;19.22
21300;BME280;10809;49.476;11.016;2022-08-11T16:02:56;98435.06;;;31.37;19.17
21300;BME280;10809;49.476;11.016;2022-08-11T16:05:46;98431.88;;;31.33;19.10
21300;BME280;10809;49.476;11.016;2022-08-11T16:08:20;98430.19;;;31.33;19.40
21300;BME280;10809;49.476;11.016;2022-08-11T16:11:16;98418.81;;;31.29;19.33
21300;BME280;10809;49.476;11.016;2022-08-11T16:13:48;98417.16;;;31.28;19.34
21300;BME280;10809;49.476;11.016;2022-08-11T16:16:39;98414.63;;;31.26;18.80
21300;BME280;10809;49.476;11.016;2022-08-11T16:19:11;98412.31;;;31.23;19.21
21300;BME280;10809;49.476;11.016;2022-08-11T16:21:43;98413.81;;;31.19;18.90
21300;BME280;10809;49.476;11.016;2022-08-11T16:24:14;98410.66;;;31.16;19.15
21300;BME280;10809;49.476;11.016;2022-08-11T16:26:46;98411.94;;;31.13;19.38
21300;BME280;10809;49.476;11.016;2022-08-11T16:29:18;98406.03;;;31.10;19.17
21300;BME280;10809;49.476;11.016;2022-08-11T16:31:51;98404.56;;;31.07;19.41
21300;BME280;10809;49.476;11.016;2022-08-11T16:34:52;98402.25;;;31.04;19.22
21300;BME280;10809;49.476;11.016;2022-08-11T16:37:42;98404.38;;;31.02;19.32
21300;BME280;10809;49.476;11.016;2022-08-11T16:40:32;98401.00;;;31.00;19.42
21300;BME280;10809;49.476;11.016;2022-08-11T16:43:05;98391.31;;;30.98;19.42
21300;BME280;10809;49.476;11.016;2022-08-11T16:45:55;98394.28;;;30.96;19.61
21300;BME280;10809;49.476;11.016;2022-08-11T16:48:47;98391.75;;;30.95;19.72
21300;BME280;10809;49.476;11.016;2022-08-11T16:51:19;98389.22;;;30.93;19.51